createdAt,value
2019-05-10T00:01:02.471Z,67.49
2019-05-10T00:03:52.127Z,68.03
2019-05-10T00:06:41.493Z,67.20
2019-05-10T00:09:12.168Z,67.58
2019-05-10T00:11:48.851Z,69.16
2019-05-10T00:14:25.283Z,68.52
2019-05-10T00:16:57.953Z,68.80
2019-05-10T00:19:28.871Z,67.17
2019-05-10T00:21:59.643Z,68.09
2019-05-10T00:24:30.434Z,69.02
2019-05-10T00:27:01.281Z,67.61
2019-05-10T00:29:32.075Z,68.40
2019-05-10T00:32:02.966Z,68.90
2019-05-10T00:34:33.782Z,69.88
2019-05-10T00:37:04.553Z,70.85
2019-05-10T00:39:35.690Z,72.25
2019-05-10T00:42:06.495Z,71.11
2019-05-10T00:44:37.272Z,69.58
2019-05-10T00:47:08.040Z,69.76
2019-05-10T00:49:39.155Z,71.17
2019-05-10T00:52:09.955Z,69.96
2019-05-10T00:54:40.714Z,69.38
2019-05-10T00:57:11.474Z,68.32
2019-05-10T00:59:42.249Z,69.64
2019-05-10T01:02:13.052Z,69.25
2019-05-10T01:04:43.809Z,68.10
2019-05-10T01:07:14.564Z,66.38
2019-05-10T01:09:45.345Z,66.66
2019-05-10T01:12:16.121Z,66.22
2019-05-10T01:14:46.924Z,67.04
2019-05-10T01:17:17.720Z,68.08
2019-05-10T01:19:48.588Z,67.84
2019-05-10T01:22:19.351Z,68.78
2019-05-10T01:24:50.368Z,70.31
2019-05-10T01:27:21.179Z,70.56
2019-05-10T01:29:52.027Z,69.28
2019-05-10T01:32:23.094Z,72.10
2019-05-10T01:34:53.893Z,71.23
2019-05-10T01:37:24.660Z,71.08
2019-05-10T01:39:55.465Z,69.63
2019-05-10T01:42:26.236Z,70.27
2019-05-10T01:44:57.011Z,72.21
2019-05-10T01:47:27.785Z,72.27
2019-05-10T01:49:58.765Z,73.71
2019-05-10T01:52:29.815Z,72.18
2019-05-10T01:55:00.596Z,71.73
2019-05-10T01:57:31.384Z,70.69
2019-05-10T02:00:05.389Z,72.84
2019-05-10T02:02:36.163Z,73.42
2019-05-10T02:05:07.556Z,73.55
2019-05-10T02:07:38.335Z,72.71
2019-05-10T02:10:09.316Z,71.50
2019-05-10T02:12:40.146Z,73.29
2019-05-10T02:15:11.304Z,73.94
2019-05-10T02:17:42.060Z,74.34
2019-05-10T02:20:13.143Z,72.77
2019-05-10T02:22:43.910Z,73.59
2019-05-10T02:25:14.932Z,73.20
2019-05-10T02:27:45.704Z,72.93
2019-05-10T02:30:16.473Z,72.61
2019-05-10T02:32:47.249Z,70.71
2019-05-10T02:35:18.007Z,70.44
2019-05-10T02:37:48.799Z,69.51
2019-05-10T02:40:19.588Z,71.30
2019-05-10T02:42:50.349Z,73.27
2019-05-10T02:45:21.118Z,71.43
2019-05-10T02:47:51.895Z,69.88
2019-05-10T02:50:22.665Z,71.07
2019-05-10T02:52:53.438Z,70.92
2019-05-10T02:55:24.508Z,71.41
2019-05-10T02:57:55.395Z,72.32
2019-05-10T03:00:26.270Z,72.09
2019-05-10T03:02:57.999Z,71.66
2019-05-10T03:05:29.576Z,69.54
2019-05-10T03:08:00.879Z,69.14
2019-05-10T03:10:32.450Z,69.58
2019-05-10T03:13:03.479Z,70.48
2019-05-10T03:15:34.879Z,70.07
2019-05-10T03:18:05.772Z,70.84
2019-05-10T03:20:36.542Z,72.15
2019-05-10T03:23:07.645Z,73.64
2019-05-10T03:25:38.410Z,75.04
2019-05-10T03:28:09.197Z,73.44
2019-05-10T03:30:39.976Z,74.85
2019-05-10T03:33:10.979Z,73.64
2019-05-10T03:35:41.755Z,75.23
2019-05-10T03:38:12.537Z,74.46
2019-05-10T03:40:43.331Z,75.78
2019-05-10T03:43:14.381Z,74.88
2019-05-10T03:45:45.148Z,74.79
2019-05-10T03:48:15.922Z,72.42
2019-05-10T03:50:46.705Z,73.64
2019-05-10T03:53:17.489Z,73.03
2019-05-10T03:55:48.258Z,73.14
2019-05-10T03:58:19.033Z,73.75
2019-05-10T04:00:49.808Z,74.34
2019-05-10T04:03:20.598Z,75.17
2019-05-10T04:05:51.359Z,74.10
2019-05-10T04:08:22.450Z,73.19
2019-05-10T04:10:53.234Z,72.46
2019-05-10T04:13:24.030Z,73.14
2019-05-10T04:15:54.814Z,73.53
2019-05-10T04:18:25.582Z,73.47
2019-05-10T04:20:56.342Z,73.69
2019-05-10T04:23:27.166Z,74.57
2019-05-10T04:25:57.945Z,71.51
2019-05-10T04:28:28.731Z,70.99
2019-05-10T04:30:59.499Z,72.03
2019-05-10T04:33:30.281Z,72.58
2019-05-10T04:36:01.360Z,72.12
2019-05-10T04:38:32.132Z,73.06
2019-05-10T04:41:02.889Z,73.42
2019-05-10T04:43:34.274Z,75.46
2019-05-10T04:46:05.045Z,72.46
2019-05-10T04:48:35.817Z,73.36
2019-05-10T04:51:06.600Z,72.78
2019-05-10T04:53:37.366Z,73.86
2019-05-10T04:56:08.180Z,72.72
2019-05-10T04:58:38.941Z,73.17
2019-05-10T05:01:09.705Z,72.55
2019-05-10T05:03:40.496Z,73.20
2019-05-10T05:06:11.256Z,72.68
2019-05-10T05:08:42.041Z,72.96
2019-05-10T05:11:13.419Z,71.82
2019-05-10T05:13:44.183Z,72.70
2019-05-10T05:16:14.968Z,72.44
2019-05-10T05:18:45.770Z,71.84
2019-05-10T05:21:16.537Z,73.95
2019-05-10T05:23:47.312Z,73.24
2019-05-10T05:26:22.819Z,72.66
2019-05-10T05:28:53.942Z,71.36
2019-05-10T05:31:24.728Z,72.51
2019-05-10T05:33:59.086Z,72.11
2019-05-10T05:36:28.203Z,72.89
2019-05-10T05:38:58.993Z,72.24
2019-05-10T05:41:31.788Z,71.60
2019-05-10T05:44:02.867Z,70.11
2019-05-10T05:46:33.646Z,72.03
2019-05-10T05:49:04.429Z,71.42
2019-05-10T05:51:35.191Z,71.71
2019-05-10T05:54:05.997Z,70.56
2019-05-10T05:56:36.728Z,68.93
2019-05-10T05:59:08.985Z,69.51
2019-05-10T06:01:39.870Z,69.19
2019-05-10T06:04:12.679Z,68.14
2019-05-10T06:06:43.333Z,68.15
2019-05-10T06:09:14.101Z,67.69
2019-05-10T06:11:44.868Z,67.19
2019-05-10T06:14:15.645Z,67.65
2019-05-10T06:16:51.535Z,67.18
2019-05-10T06:19:20.500Z,67.73
2019-05-10T06:21:58.175Z,65.65
2019-05-10T06:24:24.703Z,64.48
2019-05-10T06:26:58.176Z,64.46
2019-05-10T06:29:28.273Z,64.03
2019-05-10T06:31:59.166Z,63.64
2019-05-10T06:34:31.806Z,63.51
2019-05-10T06:37:02.740Z,62.74
2019-05-10T06:39:33.550Z,63.35
2019-05-10T06:42:04.313Z,60.67
2019-05-10T06:44:35.084Z,60.50
2019-05-10T06:47:08.397Z,60.08
2019-05-10T06:49:41.602Z,59.25
2019-05-10T06:52:11.201Z,62.06
2019-05-10T06:54:42.000Z,60.30
2019-05-10T06:57:17.372Z,58.33
2019-05-10T06:59:45.455Z,58.98
2019-05-10T07:02:20.134Z,58.39
2019-05-10T07:04:48.943Z,57.75
2019-05-10T07:07:33.140Z,56.20
2019-05-10T07:10:08.280Z,56.84
2019-05-10T07:12:25.106Z,58.11
2019-05-10T07:14:57.863Z,57.07
2019-05-10T07:17:28.594Z,56.80
2019-05-10T07:19:59.364Z,56.55
2019-05-10T07:22:30.135Z,55.70
2019-05-10T07:25:04.268Z,53.83
2019-05-10T07:27:36.767Z,53.76
2019-05-10T07:30:07.226Z,54.31
2019-05-10T07:32:38.010Z,52.92
2019-05-10T07:35:08.992Z,53.47
2019-05-10T07:37:39.764Z,53.45
2019-05-10T07:40:10.547Z,53.92
2019-05-10T07:42:45.671Z,53.89
2019-05-10T07:45:18.798Z,53.76
2019-05-10T07:47:46.728Z,53.22
2019-05-10T07:50:18.209Z,53.22
2019-05-10T07:52:48.973Z,52.91
2019-05-10T07:55:27.902Z,51.77
2019-05-10T07:57:52.435Z,52.30
2019-05-10T08:00:25.409Z,51.54
2019-05-10T08:03:07.595Z,51.88
2019-05-10T08:05:29.555Z,51.27
2019-05-10T08:08:00.485Z,51.88
2019-05-10T08:10:31.268Z,52.60
2019-05-10T08:13:03.502Z,52.20
2019-05-10T08:15:35.159Z,50.70
2019-05-10T08:18:06.156Z,50.65
2019-05-10T08:20:49.505Z,51.84
2019-05-10T08:23:09.602Z,51.17
2019-05-10T08:25:44.407Z,50.43
2019-05-10T08:28:13.048Z,50.32
2019-05-10T08:30:51.908Z,50.32
2019-05-10T08:33:17.494Z,48.77
2019-05-10T08:35:52.379Z,47.36
2019-05-10T08:38:21.929Z,50.55
2019-05-10T08:40:53.097Z,47.90
2019-05-10T08:43:24.654Z,45.03
2019-05-10T08:45:57.870Z,45.03
2019-05-10T08:48:28.330Z,47.37
2019-05-10T08:51:05.628Z,47.37
2019-05-10T08:53:32.924Z,46.87
2019-05-10T08:56:07.722Z,47.27
2019-05-10T09:01:30.175Z,48.12
2019-05-10T09:04:02.000Z,48.49
2019-05-10T09:06:32.765Z,47.96
2019-05-10T09:09:08.260Z,48.19
2019-05-10T09:11:38.769Z,47.23
2019-05-10T09:14:12.322Z,47.24
2019-05-10T09:16:45.658Z,47.95
2019-05-10T09:19:14.877Z,46.35
2019-05-10T09:21:49.764Z,46.35
2019-05-10T09:24:18.695Z,48.27
2019-05-10T09:26:52.855Z,47.79
2019-05-10T09:29:22.150Z,47.62
2019-05-10T09:31:53.507Z,48.24
2019-05-10T09:34:27.106Z,48.91
2019-05-10T09:36:57.089Z,49.71
2019-05-10T09:39:27.873Z,50.91
2019-05-10T09:41:58.638Z,51.45
2019-05-10T09:44:29.408Z,49.43
2019-05-10T09:47:01.966Z,50.33
2019-05-10T09:49:33.339Z,49.21
2019-05-10T09:52:12.414Z,50.01
2019-05-10T09:54:38.063Z,49.69
2019-05-10T09:57:09.003Z,48.82
2019-05-10T09:59:39.774Z,49.12
2019-05-10T10:02:18.921Z,49.26
2019-05-10T10:04:43.223Z,46.90
2019-05-10T10:07:14.003Z,46.41
2019-05-10T10:09:47.164Z,43.99
2019-05-10T10:12:17.669Z,43.68
2019-05-10T10:14:48.448Z,42.51
2019-05-10T10:17:20.570Z,42.39
2019-05-10T10:19:51.597Z,41.70
2019-05-10T10:22:22.372Z,40.30
2019-05-10T10:24:55.170Z,41.14
2019-05-10T10:27:34.320Z,41.25
2019-05-10T10:29:58.484Z,39.82
2019-05-10T10:32:31.576Z,41.18
2019-05-10T10:35:02.238Z,42.01
2019-05-10T10:37:33.014Z,41.55
2019-05-10T10:40:07.879Z,41.46
2019-05-10T10:42:38.312Z,41.75
2019-05-10T10:45:09.840Z,41.84
2019-05-10T10:47:40.627Z,42.70
2019-05-10T10:50:13.672Z,42.65
2019-05-10T10:52:44.599Z,41.70
2019-05-10T10:55:15.364Z,43.09
2019-05-10T10:57:48.130Z,43.55
2019-05-10T11:00:31.234Z,44.99
2019-05-10T11:03:03.121Z,43.86
2019-05-10T11:05:34.104Z,45.23
2019-05-10T11:08:04.966Z,44.56
2019-05-10T11:10:35.779Z,43.22
2019-05-10T11:13:12.156Z,43.31
2019-05-10T11:15:41.795Z,43.03
2019-05-10T11:18:11.917Z,43.31
2019-05-10T11:20:49.348Z,43.11
2019-05-10T11:23:16.338Z,43.15
2019-05-10T11:25:54.744Z,42.25
2019-05-10T11:28:20.707Z,42.25
2019-05-10T11:30:51.610Z,43.21
2019-05-10T11:33:29.667Z,45.28
2019-05-10T11:35:57.564Z,50.72
2019-05-10T11:38:27.757Z,50.72
2019-05-10T11:40:58.525Z,50.42
2019-05-10T11:43:31.211Z,51.08
2019-05-10T11:46:01.969Z,49.62
2019-05-10T11:48:37.234Z,50.59
2019-05-10T11:51:10.685Z,50.38
2019-05-10T11:53:38.129Z,49.49
2019-05-10T11:56:14.119Z,49.78
2019-05-10T11:58:49.080Z,46.47
2019-05-10T12:01:19.137Z,46.47
2019-05-10T12:03:46.940Z,49.40
2019-05-10T12:06:17.712Z,46.12
2019-05-10T12:08:52.903Z,45.57
2019-05-10T12:11:32.931Z,46.46
2019-05-10T12:13:57.430Z,44.50
2019-05-10T12:16:26.534Z,44.69
2019-05-10T12:19:15.003Z,45.46
2019-05-10T12:21:33.165Z,46.33
2019-05-10T12:24:10.423Z,46.71
2019-05-10T12:29:13.707Z,46.99
2019-05-10T12:31:41.556Z,47.52
2019-05-10T12:34:14.499Z,48.38
2019-05-10T12:36:45.086Z,46.95
2019-05-10T12:39:15.969Z,45.46
2019-05-10T12:41:49.741Z,47.36
2019-05-10T12:44:19.824Z,48.42
2019-05-10T12:46:54.055Z,48.31
2019-05-10T12:49:24.513Z,48.38
2019-05-10T12:51:55.316Z,50.05
2019-05-10T12:54:26.139Z,50.05
2019-05-10T12:56:56.938Z,49.03
2019-05-10T12:59:29.756Z,48.18
2019-05-10T13:02:04.604Z,47.60
2019-05-10T13:04:40.635Z,45.90
2019-05-10T13:07:05.831Z,47.68
2019-05-10T13:09:40.983Z,47.57
2019-05-10T13:12:12.021Z,49.15
2019-05-10T13:14:46.556Z,47.74
2019-05-10T13:17:17.137Z,46.11
2019-05-10T13:19:52.732Z,44.10
2019-05-10T13:22:20.993Z,42.04
2019-05-10T13:24:51.769Z,44.53
2019-05-10T13:27:22.543Z,43.94
2019-05-10T13:29:53.910Z,43.94
2019-05-10T13:32:24.797Z,46.95
2019-05-10T13:34:55.573Z,46.95
2019-05-10T13:37:26.334Z,46.80
2019-05-10T13:39:58.273Z,46.71
2019-05-10T13:42:30.521Z,47.05
2019-05-10T13:45:01.399Z,47.36
2019-05-10T13:47:32.174Z,46.31
2019-05-10T13:50:06.405Z,44.06
2019-05-10T13:52:38.705Z,41.17
2019-05-10T13:55:09.847Z,42.47
2019-05-10T13:57:40.624Z,43.48
2019-05-10T14:00:11.806Z,39.77
2019-05-10T14:02:42.565Z,39.10
2019-05-10T14:05:17.497Z,37.02
2019-05-10T14:07:51.667Z,36.08
2019-05-10T14:10:23.623Z,35.64
2019-05-10T14:12:56.331Z,36.44
2019-05-10T14:15:24.729Z,36.30
2019-05-10T14:17:55.501Z,35.23
2019-05-10T14:20:27.626Z,35.20
2019-05-10T14:22:59.163Z,35.18
2019-05-10T14:25:36.345Z,36.78
2019-05-10T14:28:02.777Z,39.57
2019-05-10T14:30:33.585Z,41.37
2019-05-10T14:33:08.635Z,42.71
2019-05-10T14:35:37.020Z,44.00
2019-05-10T14:38:10.465Z,45.34
2019-05-10T14:40:40.489Z,45.11
2019-05-10T14:43:11.245Z,43.74
2019-05-10T14:45:42.206Z,39.93
2019-05-10T14:48:12.976Z,38.14
2019-05-10T14:50:46.483Z,36.95
2019-05-10T14:53:20.060Z,36.41
2019-05-10T14:55:49.205Z,35.79
2019-05-10T14:58:20.226Z,35.37
2019-05-10T15:00:51.143Z,38.00
2019-05-10T15:03:21.903Z,36.96
2019-05-10T15:05:55.376Z,41.51
2019-05-10T15:08:25.359Z,39.54
2019-05-10T15:10:57.365Z,39.05
2019-05-10T15:13:28.531Z,38.80
2019-05-10T15:15:59.689Z,37.45
2019-05-10T15:18:30.458Z,38.18
2019-05-10T15:21:01.226Z,38.20
2019-05-10T15:23:31.989Z,40.43
2019-05-10T15:26:10.159Z,40.90
2019-05-10T15:28:40.356Z,41.57
2019-05-10T15:31:08.123Z,43.76
2019-05-10T15:33:38.887Z,43.00
2019-05-10T15:36:09.807Z,42.61
2019-05-10T15:38:49.471Z,42.02
2019-05-10T15:41:16.853Z,40.28
2019-05-10T15:43:48.986Z,42.60
2019-05-10T15:46:18.616Z,42.73
2019-05-10T15:48:49.381Z,42.25
2019-05-10T15:51:34.858Z,43.51
2019-05-10T15:54:03.827Z,43.76
2019-05-10T15:56:25.532Z,43.88
2019-05-10T15:58:56.312Z,45.11
2019-05-10T16:01:29.092Z,47.00
2019-05-10T16:03:59.782Z,47.72
2019-05-10T16:06:32.535Z,46.33
2019-05-10T16:09:16.974Z,47.22
2019-05-10T16:11:38.165Z,47.82
2019-05-10T16:14:09.270Z,47.82
2019-05-10T16:16:40.056Z,48.89
2019-05-10T16:19:13.018Z,51.34
2019-05-10T16:21:46.840Z,51.27
2019-05-10T16:24:25.377Z,52.06
2019-05-10T16:26:48.973Z,50.18
2019-05-10T16:29:19.726Z,50.18
2019-05-10T16:31:50.520Z,49.61
2019-05-10T16:34:26.330Z,48.93
2019-05-10T16:36:54.017Z,47.82
2019-05-10T16:39:24.791Z,47.80
2019-05-10T16:41:55.585Z,48.67
2019-05-10T16:44:26.344Z,48.02
2019-05-10T16:46:57.123Z,48.07
2019-05-10T16:49:27.901Z,47.14
2019-05-10T16:51:58.709Z,47.67
2019-05-10T16:54:29.471Z,48.41
2019-05-10T16:57:01.464Z,48.72
2019-05-10T16:59:35.200Z,49.76
2019-05-10T17:02:06.542Z,49.90
2019-05-10T17:04:39.836Z,49.95
2019-05-10T17:07:13.052Z,49.95
2019-05-10T17:09:42.814Z,49.85
2019-05-10T17:12:13.613Z,49.85
2019-05-10T17:14:44.359Z,49.36
2019-05-10T17:17:15.122Z,50.12
2019-05-10T17:19:45.914Z,48.97
2019-05-10T17:22:16.681Z,48.97
2019-05-10T17:24:47.462Z,49.69
2019-05-10T17:27:18.266Z,50.64
2019-05-10T17:29:49.773Z,50.69
2019-05-10T17:32:24.721Z,50.29
2019-05-10T17:34:54.383Z,50.41
2019-05-10T17:37:29.855Z,50.11
2019-05-10T17:39:57.847Z,49.23
2019-05-10T17:42:28.623Z,51.64
2019-05-10T17:45:01.837Z,50.64
2019-05-10T17:47:33.489Z,49.71
2019-05-10T17:50:08.373Z,49.20
2019-05-10T17:52:39.083Z,50.37
2019-05-10T17:55:16.912Z,50.96
2019-05-10T17:57:42.948Z,51.25
2019-05-10T18:00:14.135Z,51.25
2019-05-10T18:02:45.161Z,52.76
2019-05-10T18:05:16.145Z,51.28
2019-05-10T18:07:46.941Z,51.52
2019-05-10T18:10:17.810Z,53.04
2019-05-10T18:12:48.587Z,52.22
2019-05-10T18:15:19.467Z,54.01
2019-05-10T18:17:50.528Z,53.53
2019-05-10T18:20:21.331Z,52.39
2019-05-10T18:22:52.091Z,52.39
2019-05-10T18:25:22.865Z,51.54
2019-05-10T18:27:53.625Z,52.56
2019-05-10T18:30:24.422Z,51.18
2019-05-10T18:32:55.179Z,50.46
2019-05-10T18:35:25.957Z,50.77
2019-05-10T18:37:59.518Z,52.30
2019-05-10T18:40:31.685Z,51.87
2019-05-10T18:43:04.074Z,51.79
2019-05-10T18:45:34.784Z,51.45
2019-05-10T18:48:05.562Z,51.67
2019-05-10T18:50:39.614Z,53.08
2019-05-10T18:53:09.019Z,53.04
2019-05-10T18:55:39.795Z,53.33
2019-05-10T18:58:10.554Z,52.82
2019-05-10T19:00:41.389Z,54.45
2019-05-10T19:03:12.380Z,53.07
2019-05-10T19:05:43.174Z,51.71
2019-05-10T19:08:13.960Z,51.71
2019-05-10T19:10:44.765Z,52.79
2019-05-10T19:13:16.211Z,52.22
2019-05-10T19:15:52.918Z,51.64
2019-05-10T19:18:23.367Z,51.64
2019-05-10T19:20:53.573Z,52.38
2019-05-10T19:23:25.558Z,54.97
2019-05-10T19:25:56.330Z,54.57
2019-05-10T19:28:28.486Z,56.14
2019-05-10T19:31:00.564Z,57.40
2019-05-10T19:33:36.616Z,58.20
2019-05-10T19:36:12.243Z,57.76
2019-05-10T19:38:36.953Z,58.02
2019-05-10T19:41:07.728Z,58.62
2019-05-10T19:43:38.595Z,58.37
2019-05-10T19:46:09.372Z,57.29
2019-05-10T19:48:42.906Z,57.66
2019-05-10T19:51:13.696Z,58.37
2019-05-10T19:53:44.602Z,59.46
2019-05-10T19:56:15.441Z,61.09
2019-05-10T19:58:49.273Z,61.96
2019-05-10T20:01:18.943Z,61.36
2019-05-10T20:03:49.738Z,62.10
2019-05-10T20:06:20.509Z,63.16
2019-05-10T20:08:51.272Z,62.94
2019-05-10T20:11:22.135Z,63.20
2019-05-10T20:13:53.084Z,61.83
2019-05-10T20:16:23.862Z,63.95
2019-05-10T20:18:54.646Z,64.07
2019-05-10T20:21:25.414Z,64.83
2019-05-10T20:23:56.174Z,64.37
2019-05-10T20:26:26.957Z,64.66
2019-05-10T20:28:57.717Z,64.92
2019-05-10T20:31:30.618Z,64.19
2019-05-10T20:34:01.211Z,65.14
2019-05-10T20:36:32.093Z,65.27
2019-05-10T20:39:05.555Z,65.60
2019-05-10T20:41:36.374Z,65.45
2019-05-10T20:44:07.151Z,65.81
2019-05-10T20:46:37.920Z,65.46
2019-05-10T20:49:08.679Z,65.60
2019-05-10T20:51:39.457Z,65.88
2019-05-10T20:54:10.224Z,66.57
2019-05-10T20:56:40.995Z,66.57
2019-05-10T20:59:11.756Z,65.74
2019-05-10T21:01:42.533Z,65.06
2019-05-10T21:04:13.300Z,65.35
2019-05-10T21:06:44.088Z,65.00
2019-05-10T21:09:14.847Z,65.56
2019-05-10T21:11:45.626Z,65.98
2019-05-10T21:14:16.396Z,65.60
2019-05-10T21:16:47.163Z,65.95
2019-05-10T21:19:19.952Z,67.04
2019-05-10T21:21:50.602Z,67.50
2019-05-10T21:24:21.368Z,66.49
2019-05-10T21:26:52.138Z,66.51
2019-05-10T21:29:22.905Z,67.10
2019-05-10T21:31:53.677Z,67.52
2019-05-10T21:34:24.439Z,67.71
2019-05-10T21:36:55.212Z,67.16
2019-05-10T21:39:25.981Z,67.00
2019-05-10T21:41:56.760Z,67.90
2019-05-10T21:44:27.524Z,68.21
2019-05-10T21:46:58.333Z,68.73
2019-05-10T21:49:29.094Z,69.49
2019-05-10T21:51:59.920Z,69.13
2019-05-10T21:54:30.924Z,68.67
2019-05-10T21:57:01.697Z,68.76
2019-05-10T21:59:32.501Z,68.64
2019-05-10T22:02:03.521Z,68.68
2019-05-10T22:04:34.329Z,69.19
2019-05-10T22:07:05.143Z,68.84
2019-05-10T22:09:35.946Z,68.73
2019-05-10T22:12:06.960Z,68.79
2019-05-10T22:14:37.770Z,68.17
2019-05-10T22:17:08.593Z,68.00
2019-05-10T22:19:39.401Z,68.19
2019-05-10T22:22:10.223Z,67.65
2019-05-10T22:24:41.019Z,68.01
2019-05-10T22:27:11.831Z,68.41
2019-05-10T22:29:42.631Z,68.54
2019-05-10T22:32:13.438Z,67.88
2019-05-10T22:34:44.236Z,68.30
2019-05-10T22:37:15.047Z,68.90
2019-05-10T22:39:45.842Z,68.39
2019-05-10T22:42:16.659Z,67.62
2019-05-10T22:44:47.469Z,68.23
2019-05-10T22:47:18.276Z,67.85
2019-05-10T22:49:49.376Z,68.25
2019-05-10T22:52:20.191Z,68.77
2019-05-10T22:54:50.995Z,69.22
2019-05-10T22:57:21.850Z,69.65
2019-05-10T22:59:52.655Z,69.57
2019-05-10T23:02:23.499Z,69.37
2019-05-10T23:04:54.404Z,70.54
2019-05-10T23:07:25.259Z,70.81
2019-05-10T23:09:56.067Z,71.43
2019-05-10T23:12:26.882Z,70.64
2019-05-10T23:14:57.698Z,71.05
2019-05-10T23:17:28.511Z,71.01
2019-05-10T23:19:59.331Z,70.25
2019-05-10T23:22:30.151Z,70.24
2019-05-10T23:25:00.955Z,70.23
2019-05-10T23:27:31.753Z,70.73
2019-05-10T23:30:03.777Z,70.81
2019-05-10T23:32:34.640Z,70.88
2019-05-10T23:35:05.602Z,70.21
2019-05-10T23:37:36.429Z,71.26
2019-05-10T23:40:07.945Z,71.09
2019-05-10T23:42:38.748Z,73.30
2019-05-10T23:45:09.962Z,73.74
2019-05-10T23:47:40.766Z,73.57
2019-05-10T23:50:11.598Z,72.70
2019-05-10T23:52:42.412Z,71.68
2019-05-10T23:55:13.239Z,71.68
2019-05-10T23:57:44.053Z,71.78
